createdAt,value
2019-03-30T00:00:03.606Z,15.53
2019-03-30T00:02:39.318Z,12.75
2019-03-30T00:05:13.198Z,13.48
2019-03-30T00:07:47.192Z,13.13
2019-03-30T00:10:21.008Z,14.00
2019-03-30T00:12:54.952Z,16.00
2019-03-30T00:15:28.789Z,16.93
2019-03-30T00:18:02.707Z,19.20
2019-03-30T00:20:36.527Z,18.40
2019-03-30T00:23:10.298Z,18.98
2019-03-30T00:25:44.216Z,19.55
2019-03-30T00:28:18.140Z,20.97
2019-03-30T00:30:52.062Z,23.55
2019-03-30T00:33:26.416Z,22.50
2019-03-30T00:36:01.656Z,22.87
2019-03-30T00:38:35.544Z,19.82
2019-03-30T00:41:11.191Z,18.50
2019-03-30T00:43:46.341Z,15.40
2019-03-30T00:46:21.963Z,17.40
2019-03-30T00:49:05.526Z,16.95
2019-03-30T00:51:48.943Z,16.55
2019-03-30T00:54:32.306Z,17.55
2019-03-30T00:57:16.765Z,19.37
2019-03-30T01:00:01.308Z,22.20
2019-03-30T01:02:44.660Z,22.17
2019-03-30T01:05:28.130Z,31.82
2019-03-30T01:08:11.978Z,29.48
2019-03-30T01:10:47.840Z,26.35
2019-03-30T01:13:23.537Z,23.27
2019-03-30T01:16:07.227Z,23.85
2019-03-30T01:18:42.922Z,21.85
2019-03-30T01:21:18.784Z,19.98
2019-03-30T01:24:02.761Z,18.52
2019-03-30T01:26:38.365Z,15.98
2019-03-30T01:29:14.087Z,14.10
2019-03-30T01:32:02.374Z,14.28
2019-03-30T01:34:39.583Z,15.15
2019-03-30T01:37:15.478Z,19.17
2019-03-30T01:39:50.567Z,20.35
2019-03-30T01:42:36.123Z,20.00
2019-03-30T01:45:11.788Z,19.82
2019-03-30T01:47:47.419Z,18.42
2019-03-30T01:50:32.044Z,18.25
2019-03-30T01:53:07.603Z,18.98
2019-03-30T01:55:52.640Z,17.90
2019-03-30T01:58:28.285Z,17.73
2019-03-30T02:01:03.911Z,18.00
2019-03-30T02:03:39.558Z,18.17
2019-03-30T02:06:23.487Z,18.80
2019-03-30T02:09:00.046Z,15.65
2019-03-30T02:11:35.798Z,17.30
2019-03-30T02:14:11.523Z,19.60
2019-03-30T02:16:56.330Z,19.73
2019-03-30T02:19:32.437Z,19.70
2019-03-30T02:22:07.345Z,20.27
2019-03-30T02:24:41.407Z,19.67
2019-03-30T02:27:15.334Z,18.82
2019-03-30T02:29:49.383Z,19.60
2019-03-30T02:32:23.163Z,21.02
2019-03-30T02:34:57.077Z,20.20
2019-03-30T02:37:30.992Z,18.07
2019-03-30T02:40:04.981Z,18.87
2019-03-30T02:42:38.871Z,18.80
2019-03-30T02:45:12.703Z,20.55
2019-03-30T02:47:46.660Z,24.75
2019-03-30T02:50:20.994Z,24.00
2019-03-30T02:52:55.057Z,23.30
2019-03-30T02:55:29.036Z,21.40
2019-03-30T02:58:03.001Z,23.38
2019-03-30T03:00:37.460Z,25.23
2019-03-30T03:03:11.425Z,21.57
2019-03-30T03:05:45.468Z,23.15
2019-03-30T03:08:19.465Z,22.25
2019-03-30T03:10:53.458Z,23.25
2019-03-30T03:13:27.292Z,24.50
2019-03-30T03:16:01.238Z,23.90
2019-03-30T03:18:35.179Z,24.37
2019-03-30T03:21:09.213Z,22.65
2019-03-30T03:23:43.103Z,23.65
2019-03-30T03:26:17.049Z,22.62
2019-03-30T03:28:51.016Z,23.52
2019-03-30T03:31:24.959Z,23.92
2019-03-30T03:33:58.966Z,23.55
2019-03-30T03:36:32.916Z,22.40
2019-03-30T03:39:08.130Z,18.32
2019-03-30T03:41:42.110Z,20.27
2019-03-30T03:44:16.064Z,20.68
2019-03-30T03:46:50.027Z,20.23
2019-03-30T03:49:24.035Z,27.25
2019-03-30T03:51:58.070Z,30.95
2019-03-30T03:54:32.151Z,25.37
2019-03-30T03:57:06.779Z,27.13
2019-03-30T03:59:41.701Z,24.00
2019-03-30T04:02:15.743Z,23.10
2019-03-30T04:04:52.060Z,22.10
2019-03-30T04:15:13.750Z,28.05
2019-03-30T04:17:48.010Z,28.12
2019-03-30T04:20:26.644Z,32.30
2019-03-30T04:23:02.523Z,27.17
2019-03-30T04:25:36.868Z,31.65
2019-03-30T04:28:11.421Z,36.90
2019-03-30T04:30:45.610Z,35.23
2019-03-30T04:33:21.023Z,32.30
2019-03-30T04:35:55.369Z,30.35
2019-03-30T04:38:29.373Z,30.17
2019-03-30T04:41:03.856Z,31.15
2019-03-30T04:43:38.089Z,30.68
2019-03-30T04:46:15.074Z,33.00
2019-03-30T04:49:14.324Z,33.23
2019-03-30T04:51:57.938Z,34.67
2019-03-30T04:54:33.561Z,31.97
2019-03-30T04:57:17.227Z,39.88
2019-03-30T04:59:54.791Z,42.00
2019-03-30T05:03:15.109Z,39.98
2019-03-30T05:06:18.935Z,41.37
2019-03-30T05:08:58.089Z,40.60
2019-03-30T05:11:34.461Z,45.12
2019-03-30T05:14:09.880Z,44.25
2019-03-30T05:17:04.934Z,46.48
2019-03-30T05:19:41.016Z,46.05
2019-03-30T05:22:24.523Z,44.38
2019-03-30T05:25:05.402Z,47.38
2019-03-30T05:27:40.906Z,48.80
2019-03-30T05:30:19.656Z,46.92
2019-03-30T05:33:05.428Z,53.78
2019-03-30T05:35:45.033Z,60.90
2019-03-30T05:38:23.574Z,64.55
2019-03-30T05:41:10.207Z,62.65
2019-03-30T05:43:56.139Z,54.18
2019-03-30T05:46:42.724Z,57.33
2019-03-30T05:49:22.425Z,57.35
2019-03-30T05:52:03.485Z,60.05
2019-03-30T05:54:39.546Z,70.17
2019-03-30T05:57:15.673Z,89.58
2019-03-30T05:59:56.291Z,70.72
2019-03-30T06:02:36.291Z,57.98
2019-03-30T06:05:21.448Z,65.50
2019-03-30T06:08:08.897Z,67.10
2019-03-30T06:10:46.173Z,74.30
2019-03-30T06:13:28.091Z,79.95
2019-03-30T06:16:14.281Z,64.05
2019-03-30T06:18:52.648Z,59.30
2019-03-30T06:21:29.150Z,57.03
2019-03-30T06:24:06.970Z,55.50
2019-03-30T06:26:49.445Z,61.80
2019-03-30T06:29:28.970Z,67.72
2019-03-30T06:32:17.104Z,56.10
2019-03-30T06:35:18.421Z,54.90
2019-03-30T06:38:04.479Z,49.63
2019-03-30T06:40:48.375Z,53.10
2019-03-30T06:43:24.740Z,48.23
2019-03-30T06:45:58.879Z,45.80
2019-03-30T06:48:35.948Z,44.30
2019-03-30T06:51:08.837Z,42.88
2019-03-30T06:53:42.967Z,41.13
2019-03-30T06:56:17.080Z,41.88
2019-03-30T06:58:51.292Z,39.10
2019-03-30T07:01:25.425Z,37.00
2019-03-30T07:04:00.688Z,37.85
2019-03-30T07:06:35.158Z,37.93
2019-03-30T07:09:09.326Z,35.20
2019-03-30T07:11:45.276Z,34.25
2019-03-30T07:14:19.417Z,34.67
2019-03-30T07:16:54.187Z,35.25
2019-03-30T07:19:28.256Z,35.10
2019-03-30T07:22:02.290Z,32.95
2019-03-30T07:24:37.047Z,32.17
2019-03-30T07:27:11.067Z,32.25
2019-03-30T07:29:45.140Z,30.23
2019-03-30T07:32:19.467Z,30.82
2019-03-30T07:34:53.537Z,29.48
2019-03-30T07:37:27.560Z,29.32
2019-03-30T07:40:02.550Z,28.55
2019-03-30T07:42:36.543Z,29.18
2019-03-30T07:45:10.697Z,27.40
2019-03-30T07:47:45.101Z,26.82
2019-03-30T07:50:19.249Z,26.82
2019-03-30T07:52:53.279Z,25.23
2019-03-30T07:55:27.265Z,26.55
2019-03-30T07:58:01.403Z,24.57
2019-03-30T08:00:35.578Z,24.82
2019-03-30T08:03:09.632Z,23.15
2019-03-30T08:05:45.219Z,22.32
2019-03-30T08:08:19.252Z,22.25
2019-03-30T08:10:54.443Z,21.70
2019-03-30T08:13:28.676Z,21.82
2019-03-30T08:16:02.710Z,22.77
2019-03-30T08:18:36.636Z,21.52
2019-03-30T08:21:10.551Z,22.27
2019-03-30T08:23:46.937Z,21.50
2019-03-30T08:26:20.982Z,22.87
2019-03-30T08:28:55.070Z,22.15
2019-03-30T08:31:30.793Z,23.05
2019-03-30T08:34:06.119Z,22.32
2019-03-30T08:36:40.240Z,27.13
2019-03-30T08:39:14.335Z,27.27
2019-03-30T08:41:48.522Z,30.68
2019-03-30T08:44:22.824Z,29.40
2019-03-30T08:46:56.894Z,27.95
2019-03-30T08:49:30.953Z,28.55
2019-03-30T08:52:05.324Z,25.12
2019-03-30T08:55:29.812Z,25.12
2019-03-30T08:58:44.110Z,23.00
2019-03-30T09:01:36.598Z,25.23
2019-03-30T09:04:12.140Z,25.62
2019-03-30T09:06:46.327Z,23.00
2019-03-30T09:09:20.403Z,21.93
2019-03-30T09:11:54.995Z,20.82
2019-03-30T09:14:29.185Z,22.45
2019-03-30T09:17:03.295Z,21.48
2019-03-30T09:19:37.899Z,21.85
2019-03-30T09:22:11.976Z,18.57
2019-03-30T09:24:46.144Z,19.95
2019-03-30T09:27:20.230Z,18.67
2019-03-30T09:29:54.327Z,20.30
2019-03-30T09:32:29.379Z,19.90
2019-03-30T09:35:07.553Z,21.65
2019-03-30T09:37:41.690Z,21.62
2019-03-30T09:40:15.918Z,18.98
2019-03-30T09:42:49.928Z,20.37
2019-03-30T09:45:25.110Z,21.33
2019-03-30T09:47:59.324Z,21.45
2019-03-30T09:50:32.996Z,20.80
2019-03-30T09:53:06.740Z,22.67
2019-03-30T09:55:40.365Z,22.55
2019-03-30T09:58:13.982Z,23.40
2019-03-30T10:00:52.330Z,21.20
2019-03-30T10:03:25.956Z,19.55
2019-03-30T10:06:01.482Z,21.30
2019-03-30T10:08:35.115Z,20.75
2019-03-30T10:11:08.750Z,23.22
2019-03-30T10:13:42.453Z,22.93
2019-03-30T10:16:16.103Z,22.05
2019-03-30T10:18:49.734Z,21.60
2019-03-30T10:21:23.323Z,23.60
2019-03-30T10:23:56.928Z,22.00
2019-03-30T10:26:30.719Z,24.87
2019-03-30T10:29:04.279Z,22.77
2019-03-30T10:31:37.902Z,23.18
2019-03-30T10:34:12.428Z,22.02
2019-03-30T10:36:46.052Z,21.52
2019-03-30T10:39:19.706Z,21.70
2019-03-30T10:41:53.409Z,21.60
2019-03-30T10:44:26.965Z,23.18
2019-03-30T10:47:00.628Z,24.10
2019-03-30T10:49:34.290Z,22.77
2019-03-30T10:52:07.868Z,25.25
2019-03-30T10:54:51.974Z,23.87
2019-03-30T10:57:16.867Z,23.73
2019-03-30T10:59:50.850Z,23.15
2019-03-30T11:02:25.249Z,22.80
2019-03-30T11:07:54.614Z,23.12
2019-03-30T11:10:28.766Z,23.18
2019-03-30T11:13:03.200Z,24.35
2019-03-30T11:15:37.278Z,21.73
2019-03-30T11:18:11.273Z,23.77
2019-03-30T11:20:45.232Z,23.90
2019-03-30T11:23:19.098Z,25.20
2019-03-30T11:25:53.310Z,23.60
2019-03-30T11:28:27.175Z,23.65
2019-03-30T11:31:01.147Z,25.45
2019-03-30T11:33:35.252Z,24.07
2019-03-30T11:36:09.246Z,23.07
2019-03-30T11:38:43.263Z,24.65
2019-03-30T11:41:17.278Z,25.10
2019-03-30T11:43:51.323Z,24.07
2019-03-30T11:46:25.265Z,23.57
2019-03-30T11:48:59.645Z,24.87
2019-03-30T11:51:33.595Z,24.67
2019-03-30T11:54:07.760Z,25.92
2019-03-30T11:56:41.659Z,24.12
2019-03-30T11:59:15.545Z,24.77
2019-03-30T12:01:49.509Z,25.90
2019-03-30T12:04:26.019Z,23.83
2019-03-30T12:06:59.970Z,23.95
2019-03-30T12:09:33.999Z,24.55
2019-03-30T12:12:07.966Z,23.05
2019-03-30T12:14:41.920Z,23.20
2019-03-30T12:17:16.955Z,23.25
2019-03-30T12:19:51.643Z,24.90
2019-03-30T12:22:48.948Z,21.57
2019-03-30T12:25:34.894Z,23.67
2019-03-30T12:27:58.240Z,22.98
2019-03-30T12:30:32.046Z,21.17
2019-03-30T12:33:05.962Z,22.37
2019-03-30T12:35:42.027Z,23.87
2019-03-30T12:38:16.440Z,23.25
2019-03-30T12:40:51.119Z,22.65
2019-03-30T12:43:24.748Z,22.58
2019-03-30T12:45:58.491Z,23.55
2019-03-30T12:48:32.196Z,21.35
2019-03-30T12:51:05.924Z,23.87
2019-03-30T12:53:49.950Z,22.37
2019-03-30T12:56:16.211Z,26.17
2019-03-30T12:58:50.057Z,23.67
2019-03-30T13:01:23.966Z,23.25
2019-03-30T13:03:58.871Z,23.55
2019-03-30T13:06:32.846Z,23.42
2019-03-30T13:09:09.055Z,23.47
2019-03-30T13:11:42.921Z,23.70
2019-03-30T13:14:16.828Z,23.73
2019-03-30T13:16:50.929Z,23.20
2019-03-30T13:19:25.836Z,22.80
2019-03-30T13:22:00.788Z,23.38
2019-03-30T13:24:34.785Z,23.35
2019-03-30T13:27:08.850Z,25.65
2019-03-30T13:29:42.934Z,24.87
2019-03-30T13:32:18.457Z,23.98
2019-03-30T13:34:53.970Z,24.05
2019-03-30T13:37:27.760Z,24.02
2019-03-30T13:40:01.655Z,23.60
2019-03-30T13:42:35.609Z,24.80
2019-03-30T13:45:09.598Z,24.77
2019-03-30T13:47:43.429Z,25.40
2019-03-30T13:50:17.247Z,25.50
2019-03-30T13:52:51.098Z,26.00
2019-03-30T13:55:24.907Z,24.72
2019-03-30T13:57:58.914Z,24.20
2019-03-30T14:00:32.811Z,25.92
2019-03-30T14:03:06.720Z,26.05
2019-03-30T14:05:41.592Z,24.57
2019-03-30T14:08:15.577Z,24.70
2019-03-30T14:10:49.492Z,24.80
2019-03-30T14:13:24.460Z,24.75
2019-03-30T14:15:59.370Z,23.83
2019-03-30T14:18:33.403Z,21.93
2019-03-30T14:21:07.200Z,21.07
2019-03-30T14:23:43.442Z,21.23
2019-03-30T14:26:30.211Z,19.77
2019-03-30T14:28:51.693Z,21.07
2019-03-30T14:31:25.349Z,20.17
2019-03-30T14:33:59.728Z,20.85
2019-03-30T14:36:34.301Z,16.97
2019-03-30T14:39:09.159Z,20.62
2019-03-30T14:41:42.977Z,18.62
2019-03-30T14:44:17.223Z,18.42
2019-03-30T14:46:51.154Z,18.25
2019-03-30T14:49:25.289Z,17.12
2019-03-30T14:51:59.059Z,20.17
2019-03-30T14:54:32.989Z,17.85
2019-03-30T14:57:06.915Z,17.60
2019-03-30T14:59:40.825Z,16.52
2019-03-30T15:02:14.657Z,18.10
2019-03-30T15:04:48.568Z,17.65
2019-03-30T15:07:23.217Z,18.80
2019-03-30T15:09:57.176Z,17.23
2019-03-30T15:12:30.990Z,15.95
2019-03-30T15:15:05.045Z,17.75
2019-03-30T15:17:40.818Z,14.90
2019-03-30T15:20:16.209Z,16.80
2019-03-30T15:22:50.924Z,16.23
2019-03-30T15:25:24.684Z,16.10
2019-03-30T15:27:59.587Z,17.20
2019-03-30T15:30:33.927Z,15.85
2019-03-30T15:33:20.210Z,18.30
2019-03-30T15:35:53.896Z,25.68
2019-03-30T15:38:28.776Z,22.22
2019-03-30T15:41:02.947Z,18.12
2019-03-30T15:43:38.661Z,16.40
2019-03-30T15:46:14.235Z,17.65
2019-03-30T15:48:48.181Z,18.25
2019-03-30T15:51:22.035Z,16.42
2019-03-30T15:53:56.852Z,14.50
2019-03-30T15:56:31.951Z,14.95
2019-03-30T15:59:06.010Z,19.32
2019-03-30T16:01:39.897Z,17.35
2019-03-30T16:04:13.802Z,16.15
2019-03-30T16:06:47.543Z,14.70
2019-03-30T16:09:21.291Z,15.38
2019-03-30T16:11:54.974Z,14.55
2019-03-30T16:14:28.849Z,15.38
2019-03-30T16:17:02.620Z,15.35
2019-03-30T16:19:36.382Z,15.83
2019-03-30T16:22:10.187Z,17.07
2019-03-30T16:24:44.051Z,16.50
2019-03-30T16:27:28.209Z,15.98
2019-03-30T16:29:53.205Z,15.78
2019-03-30T16:32:26.927Z,16.10
2019-03-30T16:35:00.627Z,18.82
2019-03-30T16:37:35.428Z,16.15
2019-03-30T16:40:09.070Z,16.95
2019-03-30T16:42:43.996Z,19.35
2019-03-30T16:45:18.736Z,18.55
2019-03-30T16:47:52.533Z,20.90
2019-03-30T16:50:26.491Z,19.67
2019-03-30T16:53:00.501Z,24.57
2019-03-30T16:55:34.402Z,32.17
2019-03-30T16:58:08.856Z,38.92
2019-03-30T17:00:56.285Z,48.80
2019-03-30T17:03:24.244Z,69.92
2019-03-30T17:05:58.432Z,65.30
2019-03-30T17:08:32.347Z,66.28
2019-03-30T17:11:06.589Z,63.45
2019-03-30T17:13:46.644Z,56.88
2019-03-30T17:16:20.677Z,76.82
2019-03-30T17:18:54.501Z,76.07
2019-03-30T17:21:28.168Z,59.80
2019-03-30T17:24:15.872Z,56.33
2019-03-30T17:26:49.782Z,53.58
2019-03-30T17:29:23.616Z,36.25
2019-03-30T17:31:57.415Z,31.73
2019-03-30T17:34:31.233Z,41.88
2019-03-30T17:37:05.326Z,84.83
2019-03-30T17:39:40.311Z,90.28
2019-03-30T17:42:14.098Z,69.72
2019-03-30T17:44:47.960Z,57.58
2019-03-30T17:47:21.701Z,56.10
2019-03-30T17:50:12.758Z,61.10
2019-03-30T17:52:46.909Z,85.70
2019-03-30T17:55:33.008Z,101.10
2019-03-30T17:57:56.448Z,97.90
2019-03-30T18:00:30.287Z,110.05
2019-03-30T18:03:04.110Z,114.32
2019-03-30T18:05:37.817Z,81.05
2019-03-30T18:08:12.383Z,86.30
2019-03-30T18:10:46.123Z,121.62
2019-03-30T18:13:20.208Z,104.78
2019-03-30T18:15:54.169Z,109.75
2019-03-30T18:18:28.002Z,107.20
2019-03-30T18:21:01.780Z,112.10
2019-03-30T18:23:35.583Z,96.00
2019-03-30T18:26:09.478Z,73.05
2019-03-30T18:28:43.289Z,65.95
2019-03-30T18:31:17.227Z,82.42
2019-03-30T18:33:51.002Z,86.40
2019-03-30T18:36:33.530Z,96.47
2019-03-30T18:39:13.048Z,110.40
2019-03-30T18:41:47.445Z,116.15
2019-03-30T18:44:21.414Z,114.80
2019-03-30T18:46:55.265Z,117.05
2019-03-30T18:49:31.122Z,116.77
2019-03-30T18:52:08.583Z,129.50
2019-03-30T18:54:43.151Z,136.22
2019-03-30T18:57:17.122Z,129.18
2019-03-30T18:59:51.008Z,123.20
2019-03-30T19:02:24.941Z,120.15
2019-03-30T19:04:58.909Z,111.40
2019-03-30T19:07:33.851Z,105.20
2019-03-30T19:10:08.236Z,102.70
2019-03-30T19:12:45.065Z,94.42
2019-03-30T19:15:23.045Z,89.77
2019-03-30T19:17:57.198Z,93.25
2019-03-30T19:20:31.144Z,104.25
2019-03-30T19:23:05.046Z,110.17
2019-03-30T19:25:38.870Z,114.03
2019-03-30T19:28:14.227Z,105.78
2019-03-30T19:30:48.156Z,92.08
2019-03-30T19:33:22.359Z,105.30
2019-03-30T19:35:58.951Z,106.03
2019-03-30T19:38:34.013Z,90.38
2019-03-30T19:41:07.933Z,98.37
2019-03-30T19:43:41.745Z,99.30
2019-03-30T19:46:16.830Z,92.57
2019-03-30T19:48:50.770Z,69.85
2019-03-30T19:51:24.598Z,60.80
2019-03-30T19:54:00.143Z,57.65
2019-03-30T19:56:34.752Z,64.10
2019-03-30T19:59:11.027Z,59.38
2019-03-30T20:01:44.923Z,59.58
2019-03-30T20:04:19.463Z,56.98
2019-03-30T20:06:53.386Z,57.78
2019-03-30T20:09:27.195Z,61.20
2019-03-30T20:12:02.850Z,60.45
2019-03-30T20:14:36.736Z,57.88
2019-03-30T20:17:11.011Z,60.60
2019-03-30T20:19:44.806Z,57.05
2019-03-30T20:22:18.703Z,57.53
2019-03-30T20:24:55.653Z,61.95
2019-03-30T20:27:29.543Z,59.80
2019-03-30T20:30:03.896Z,55.30
2019-03-30T20:32:38.267Z,55.78
2019-03-30T20:35:12.347Z,68.33
2019-03-30T20:37:46.506Z,71.67
2019-03-30T20:40:20.931Z,65.83
2019-03-30T20:42:55.104Z,77.30
2019-03-30T20:45:29.352Z,74.58
2019-03-30T20:48:04.101Z,76.10
2019-03-30T20:50:38.467Z,70.87
2019-03-30T20:53:12.952Z,59.18
2019-03-30T20:55:47.520Z,48.63
2019-03-30T20:58:21.588Z,46.18
2019-03-30T21:00:55.572Z,45.30
2019-03-30T21:03:29.936Z,49.05
2019-03-30T21:06:04.480Z,54.10
2019-03-30T21:08:38.515Z,58.08
2019-03-30T21:11:12.757Z,53.23
2019-03-30T21:13:46.785Z,56.00
2019-03-30T21:16:21.009Z,58.92
2019-03-30T21:18:54.912Z,58.15
2019-03-30T21:21:29.265Z,59.23
2019-03-30T21:24:03.356Z,57.78
2019-03-30T21:26:38.415Z,56.77
2019-03-30T21:29:12.534Z,55.83
2019-03-30T21:31:49.277Z,59.58
2019-03-30T21:34:22.106Z,54.30
2019-03-30T21:36:56.054Z,54.40
2019-03-30T21:39:29.987Z,54.60
2019-03-30T21:42:04.055Z,54.53
2019-03-30T21:44:37.816Z,51.28
2019-03-30T21:47:11.552Z,52.33
2019-03-30T21:49:45.197Z,55.35
2019-03-30T21:52:18.898Z,58.17
2019-03-30T21:54:52.541Z,59.80
2019-03-30T21:57:26.227Z,58.73
2019-03-30T22:00:09.918Z,60.12
2019-03-30T22:02:36.892Z,59.67
2019-03-30T22:05:10.633Z,57.30
2019-03-30T22:07:44.438Z,59.08
2019-03-30T22:10:27.814Z,58.45
2019-03-30T22:13:01.521Z,60.12
2019-03-30T22:15:35.161Z,62.10
2019-03-30T22:18:08.776Z,65.62
2019-03-30T22:20:42.421Z,71.20
2019-03-30T22:23:16.097Z,82.00
2019-03-30T22:25:49.750Z,94.35
2019-03-30T22:28:24.524Z,111.40
2019-03-30T22:30:58.110Z,132.93
2019-03-30T22:33:31.717Z,138.40
2019-03-30T22:36:05.367Z,129.57
2019-03-30T22:38:39.103Z,137.32
2019-03-30T22:41:12.753Z,117.97
2019-03-30T22:43:46.390Z,111.90
2019-03-30T22:46:20.311Z,104.78
2019-03-30T22:48:53.930Z,100.97
2019-03-30T22:51:27.575Z,94.10
2019-03-30T22:54:01.197Z,84.75
2019-03-30T22:56:34.840Z,78.30
2019-03-30T22:59:08.519Z,78.33
2019-03-30T23:01:42.093Z,75.78
2019-03-30T23:04:15.896Z,76.50
2019-03-30T23:06:49.555Z,76.40
2019-03-30T23:09:23.216Z,73.33
2019-03-30T23:11:56.787Z,75.47
2019-03-30T23:14:30.421Z,73.90
2019-03-30T23:17:04.163Z,71.45
2019-03-30T23:19:37.938Z,67.85
2019-03-30T23:22:11.617Z,68.95
2019-03-30T23:24:45.291Z,64.35
2019-03-30T23:27:18.973Z,66.65
2019-03-30T23:29:52.769Z,58.00
2019-03-30T23:32:26.577Z,61.92
2019-03-30T23:35:00.767Z,57.70
2019-03-30T23:37:34.585Z,56.23
2019-03-30T23:40:08.832Z,61.53
2019-03-30T23:42:42.754Z,61.35
2019-03-30T23:45:17.454Z,64.82
2019-03-30T23:47:51.403Z,62.17
2019-03-30T23:50:25.252Z,60.10
2019-03-30T23:52:59.102Z,58.80
2019-03-30T23:55:33.078Z,60.05
2019-03-30T23:58:06.979Z,58.20
